Time;durP1;ratioP1;P1;durP2;ratioP2;P2;SDS_P1;SDS_P2;PMS_P1;PMS_P2;Temp;Humidity;BMP_temperature;BMP_pressure;BME280_temperature;BME280_humidity;BME280_pressure;Samples;Min_cycle;Max_cycle;Signal;HPM_P1;HPM_P2
2021/05/24 00:02:07;;;;;;;3.63;1.70;;;;;;;;;;3616394;39;20067;-64
2021/05/24 00:04:33;;;;;;;3.75;1.80;;;;;;;;;;3616715;39;20043;-64
2021/05/24 00:06:58;;;;;;;3.45;1.90;;;;;;;;;;3616878;39;20386;-64
2021/05/24 00:09:23;;;;;;;8.02;1.80;;;;;;;;;;3616006;39;20480;-64
2021/05/24 00:11:51;;;;;;;3.17;1.52;;;;;;;;;;3617166;39;20031;-64
2021/05/24 00:14:19;;;;;;;3.42;1.63;;;;;;;;;;3616931;39;20035;-64
2021/05/24 00:16:45;;;;;;;3.30;1.75;;;;;;;;;;3616037;39;20254;-64
2021/05/24 00:19:10;;;;;;;3.60;1.63;;;;;;;;;;3617117;39;20038;-64
2021/05/24 00:21:35;;;;;;;4.10;1.98;;;;;;;;;;3617090;39;20035;-64
2021/05/24 00:24:01;;;;;;;6.30;1.65;;;;;;;;;;3616974;39;20464;-64
2021/05/24 00:26:26;;;;;;;3.92;1.77;;;;;;;;;;3606753;39;20061;-64
2021/05/24 00:28:52;;;;;;;3.95;1.80;;;;;;;;;;3617468;39;20031;-64
2021/05/24 00:31:18;;;;;;;3.78;1.95;;;;;;;;;;3617196;39;20027;-64
2021/05/24 00:33:44;;;;;;;3.65;1.90;;;;;;;;;;3615745;39;20031;-65
2021/05/24 00:36:10;;;;;;;3.92;1.90;;;;;;;;;;3617156;39;20027;-64
2021/05/24 00:38:35;;;;;;;3.85;2.10;;;;;;;;;;3616945;39;20024;-64
2021/05/24 00:41:01;;;;;;;2.90;1.63;;;;;;;;;;3615259;39;20035;-64
2021/05/24 00:43:26;;;;;;;5.20;2.17;;;;;;;;;;3614411;39;20031;-64
2021/05/24 00:45:52;;;;;;;8.55;2.20;;;;;;;;;;3615257;39;20121;-64
2021/05/24 00:48:17;;;;;;;3.00;1.63;;;;;;;;;;3614994;39;20031;-63
2021/05/24 00:50:43;;;;;;;5.00;1.90;;;;;;;;;;3615478;39;20489;-63
2021/05/24 00:53:08;;;;;;;6.07;2.13;;;;;;;;;;3614148;39;20046;-63
2021/05/24 00:55:34;;;;;;;4.95;2.50;;;;;;;;;;3616615;39;20076;-63
2021/05/24 00:57:59;;;;;;;6.75;2.70;;;;;;;;;;3607543;39;20054;-63
2021/05/24 01:00:46;;;;;;;9.13;2.47;;;;;;;;;;3613793;39;20047;-63
2021/05/24 01:03:13;;;;;;;4.35;2.05;;;;;;;;;;3613882;39;20070;-63
2021/05/24 01:05:41;;;;;;;5.28;2.10;;;;;;;;;;3615982;39;20375;-63
2021/05/24 01:08:07;;;;;;;3.20;2.00;;;;;;;;;;3615304;39;20512;-64
2021/05/24 01:10:33;;;;;;;5.80;2.40;;;;;;;;;;3613514;39;20107;-64
2021/05/24 01:13:00;;;;;;;4.47;2.30;;;;;;;;;;3616847;39;20039;-64
2021/05/24 01:15:26;;;;;;;7.18;2.13;;;;;;;;;;3616745;39;20035;-63
2021/05/24 01:17:54;;;;;;;4.53;1.80;;;;;;;;;;3616865;39;20112;-63
2021/05/24 01:20:20;;;;;;;3.90;2.28;;;;;;;;;;3616137;39;20343;-63
2021/05/24 01:22:57;;;;;;;8.20;1.95;;;;;;;;;;3616960;39;20031;-63
2021/05/24 01:25:23;;;;;;;5.63;2.10;;;;;;;;;;3615280;39;20035;-64
2021/05/24 01:27:48;;;;;;;5.82;2.42;;;;;;;;;;3615555;39;20038;-64
2021/05/24 01:30:14;;;;;;;4.15;2.20;;;;;;;;;;3615583;39;20330;-64
2021/05/24 01:32:40;;;;;;;4.13;2.40;;;;;;;;;;3615206;39;20031;-63
2021/05/24 01:35:06;;;;;;;6.20;2.72;;;;;;;;;;3615022;39;20127;-64
2021/05/24 01:37:32;;;;;;;3.88;2.08;;;;;;;;;;3614930;39;20273;-63
2021/05/24 01:40:02;;;;;;;3.80;2.22;;;;;;;;;;3616096;39;20031;-63
2021/05/24 01:42:27;;;;;;;4.80;2.35;;;;;;;;;;3615186;39;20583;-64
2021/05/24 01:44:53;;;;;;;4.38;2.45;;;;;;;;;;3615132;39;20039;-63
2021/05/24 01:47:18;;;;;;;8.00;2.78;;;;;;;;;;3616340;39;20037;-64
2021/05/24 01:49:47;;;;;;;5.30;2.65;;;;;;;;;;3616387;39;20066;-64
2021/05/24 01:52:14;;;;;;;6.72;2.58;;;;;;;;;;3617028;39;20031;-64
2021/05/24 01:54:40;;;;;;;7.80;2.10;;;;;;;;;;3616485;39;20098;-64
2021/05/24 01:57:06;;;;;;;8.13;2.97;;;;;;;;;;3616486;39;20045;-64
2021/05/24 01:59:31;;;;;;;5.85;2.10;;;;;;;;;;3616185;39;20335;-64
2021/05/24 02:01:57;;;;;;;12.15;2.50;;;;;;;;;;3606670;39;20027;-63
2021/05/24 02:04:22;;;;;;;7.03;3.03;;;;;;;;;;3616372;39;20031;-63
2021/05/24 02:06:47;;;;;;;6.35;3.20;;;;;;;;;;3614753;39;20027;-63
2021/05/24 02:09:13;;;;;;;4.45;2.65;;;;;;;;;;3613281;39;20035;-63
2021/05/24 02:11:38;;;;;;;5.60;2.85;;;;;;;;;;3606502;39;20039;-63
2021/05/24 02:14:04;;;;;;;8.82;2.75;;;;;;;;;;3616239;39;20035;-63
2021/05/24 02:16:52;;;;;;;5.72;2.80;;;;;;;;;;3615448;39;20655;-63
2021/05/24 02:19:19;;;;;;;4.63;2.80;;;;;;;;;;3615433;39;20039;-64
2021/05/24 02:21:44;;;;;;;3.55;2.20;;;;;;;;;;3613287;39;20135;-64
2021/05/24 02:24:12;;;;;;;5.40;2.35;;;;;;;;;;3609893;39;20043;-64
2021/05/24 02:26:39;;;;;;;3.83;2.00;;;;;;;;;;3615513;39;20035;-64
2021/05/24 02:29:05;;;;;;;4.35;1.77;;;;;;;;;;3616104;39;20035;-64
2021/05/24 02:31:32;;;;;;;5.03;2.03;;;;;;;;;;3606724;39;20082;-63
2021/05/24 02:33:57;;;;;;;4.50;1.92;;;;;;;;;;3615984;39;20039;-64
2021/05/24 02:36:24;;;;;;;4.20;1.75;;;;;;;;;;3615852;39;20477;-64
2021/05/24 02:38:50;;;;;;;4.00;1.88;;;;;;;;;;3616416;39;20384;-64
2021/05/24 02:41:16;;;;;;;4.20;2.10;;;;;;;;;;3616379;39;20043;-64
2021/05/24 02:43:41;;;;;;;5.38;1.85;;;;;;;;;;3614881;39;20071;-64
2021/05/24 02:46:07;;;;;;;4.30;2.15;;;;;;;;;;3614725;39;20019;-64
2021/05/24 02:48:33;;;;;;;3.45;1.70;;;;;;;;;;3615631;39;20027;-64
2021/05/24 02:50:58;;;;;;;5.22;2.20;;;;;;;;;;3615528;39;20112;-64
2021/05/24 02:53:24;;;;;;;3.05;1.70;;;;;;;;;;3615932;39;20054;-64
2021/05/24 02:55:49;;;;;;;4.00;1.80;;;;;;;;;;3616476;39;20167;-64
2021/05/24 02:58:14;;;;;;;4.53;1.98;;;;;;;;;;3616341;39;20465;-64
2021/05/24 03:00:40;;;;;;;7.03;2.05;;;;;;;;;;3615124;39;22606;-64
2021/05/24 03:03:07;;;;;;;5.80;1.90;;;;;;;;;;3616105;39;20043;-64
2021/05/24 03:05:33;;;;;;;4.75;2.08;;;;;;;;;;3615610;39;20043;-64
2021/05/24 03:08:00;;;;;;;3.00;1.67;;;;;;;;;;3606895;39;20438;-64
2021/05/24 03:10:25;;;;;;;6.15;1.95;;;;;;;;;;3615075;39;20047;-64
2021/05/24 03:12:52;;;;;;;5.00;2.08;;;;;;;;;;3615802;39;20035;-64
2021/05/24 03:15:19;;;;;;;4.30;2.20;;;;;;;;;;3615877;39;20266;-64
2021/05/24 03:17:45;;;;;;;3.53;1.70;;;;;;;;;;3615169;39;20030;-64
2021/05/24 03:20:12;;;;;;;3.20;1.67;;;;;;;;;;3615740;39;20023;-64
2021/05/24 03:22:38;;;;;;;5.03;1.98;;;;;;;;;;3615636;39;20034;-64
2021/05/24 03:25:05;;;;;;;4.32;2.10;;;;;;;;;;3616184;39;20373;-64
2021/05/24 03:27:30;;;;;;;3.88;2.10;;;;;;;;;;3614435;39;20507;-64
2021/05/24 03:29:56;;;;;;;4.03;2.08;;;;;;;;;;3616320;39;20038;-64
2021/05/24 03:32:21;;;;;;;5.53;2.10;;;;;;;;;;3614796;39;20568;-64
2021/05/24 03:34:47;;;;;;;6.25;2.15;;;;;;;;;;3612900;39;20278;-63
2021/05/24 03:37:12;;;;;;;3.25;1.77;;;;;;;;;;3614453;39;20043;-61
2021/05/24 03:39:38;;;;;;;3.20;1.65;;;;;;;;;;3612549;39;20196;-61
2021/05/24 03:42:03;;;;;;;15.40;2.38;;;;;;;;;;3614097;39;20039;-61
2021/05/24 03:44:29;;;;;;;4.82;2.55;;;;;;;;;;3614405;39;20534;-61
2021/05/24 03:46:54;;;;;;;4.60;2.00;;;;;;;;;;3612228;39;20679;-61
2021/05/24 03:49:20;;;;;;;3.92;2.17;;;;;;;;;;3613748;39;20139;-61
2021/05/24 03:51:45;;;;;;;3.38;1.90;;;;;;;;;;3615552;39;20036;-61
2021/05/24 03:54:11;;;;;;;5.18;2.17;;;;;;;;;;3614325;39;20436;-62
2021/05/24 03:56:36;;;;;;;3.67;1.63;;;;;;;;;;3615703;39;20049;-61
2021/05/24 03:59:02;;;;;;;4.10;1.92;;;;;;;;;;3615589;39;20545;-61
2021/05/24 04:01:28;;;;;;;3.75;1.63;;;;;;;;;;3616505;39;20047;-61
2021/05/24 04:03:55;;;;;;;4.45;2.17;;;;;;;;;;3616790;39;20035;-63
2021/05/24 04:06:21;;;;;;;4.22;2.03;;;;;;;;;;3617484;39;20034;-61
2021/05/24 04:08:47;;;;;;;4.35;2.30;;;;;;;;;;3617215;39;20417;-62
2021/05/24 04:11:14;;;;;;;4.18;2.05;;;;;;;;;;3615323;39;20493;-61
2021/05/24 04:13:42;;;;;;;4.35;2.10;;;;;;;;;;3614112;39;20075;-62
2021/05/24 04:16:07;;;;;;;4.05;1.80;;;;;;;;;;3613700;39;20047;-61
2021/05/24 04:18:35;;;;;;;5.18;2.00;;;;;;;;;;3613857;39;20301;-61
2021/05/24 04:21:04;;;;;;;3.88;2.13;;;;;;;;;;3617080;39;20027;-61
2021/05/24 04:23:30;;;;;;;4.82;2.25;;;;;;;;;;3617138;39;20035;-61
2021/05/24 04:25:55;;;;;;;5.57;3.08;;;;;;;;;;3616515;39;20064;-61
2021/05/24 04:28:20;;;;;;;8.02;4.43;;;;;;;;;;3617190;39;20043;-61
2021/05/24 04:30:46;;;;;;;7.55;3.97;;;;;;;;;;3617144;39;20079;-62
2021/05/24 04:33:12;;;;;;;5.97;3.10;;;;;;;;;;3607014;39;20093;-61
2021/05/24 04:35:37;;;;;;;4.18;2.40;;;;;;;;;;3617020;39;20187;-61
2021/05/24 04:38:04;;;;;;;3.90;2.42;;;;;;;;;;3617124;39;20425;-61
2021/05/24 04:40:30;;;;;;;4.50;1.85;;;;;;;;;;3616060;39;20031;-61
2021/05/24 04:42:56;;;;;;;4.30;2.10;;;;;;;;;;3616614;39;20296;-61
2021/05/24 04:45:22;;;;;;;3.72;2.22;;;;;;;;;;3616803;39;20027;-61
2021/05/24 04:47:47;;;;;;;3.63;1.85;;;;;;;;;;3607355;39;20447;-62
2021/05/24 04:50:13;;;;;;;3.28;1.70;;;;;;;;;;3616723;39;20377;-61
2021/05/24 04:52:38;;;;;;;3.72;1.50;;;;;;;;;;3617173;39;20043;-61
2021/05/24 04:55:05;;;;;;;4.60;1.90;;;;;;;;;;3616904;39;20135;-61
2021/05/24 04:57:31;;;;;;;2.95;1.58;;;;;;;;;;3616032;39;20083;-61
2021/05/24 04:59:56;;;;;;;5.10;1.73;;;;;;;;;;3616942;39;20358;-61
2021/05/24 05:02:22;;;;;;;2.97;1.90;;;;;;;;;;3616682;39;20621;-61
2021/05/24 05:04:47;;;;;;;5.00;1.92;;;;;;;;;;3617449;39;20031;-61
2021/05/24 05:07:13;;;;;;;4.13;1.63;;;;;;;;;;3615304;39;20034;-62
2021/05/24 05:09:38;;;;;;;4.75;1.90;;;;;;;;;;3616508;39;20529;-61
2021/05/24 05:12:04;;;;;;;3.55;1.70;;;;;;;;;;3616128;39;20385;-61
2021/05/24 05:14:30;;;;;;;4.20;1.77;;;;;;;;;;3616686;39;20035;-61
2021/05/24 05:16:55;;;;;;;4.65;1.67;;;;;;;;;;3615812;39;20034;-61
2021/05/24 05:19:21;;;;;;;4.15;1.38;;;;;;;;;;3616544;39;20338;-61
2021/05/24 05:21:48;;;;;;;5.30;1.40;;;;;;;;;;3616667;39;20061;-62
2021/05/24 05:24:13;;;;;;;5.18;1.58;;;;;;;;;;3616681;39;20042;-61
2021/05/24 05:26:39;;;;;;;4.20;2.10;;;;;;;;;;3606623;39;20055;-61
2021/05/24 05:29:04;;;;;;;5.88;2.83;;;;;;;;;;3616079;39;20048;-61
2021/05/24 05:31:30;;;;;;;7.03;4.70;;;;;;;;;;3616219;39;20054;-61
2021/05/24 05:33:55;;;;;;;5.63;3.53;;;;;;;;;;3616679;39;20035;-61
2021/05/24 05:36:21;;;;;;;6.03;3.20;;;;;;;;;;3616634;39;20039;-61
2021/05/24 05:38:46;;;;;;;6.57;2.80;;;;;;;;;;3616509;39;20040;-61
2021/05/24 05:41:12;;;;;;;4.28;1.88;;;;;;;;;;3616748;39;20027;-61
2021/05/24 05:43:37;;;;;;;5.15;2.40;;;;;;;;;;3613523;39;20115;-61
2021/05/24 05:46:03;;;;;;;7.20;3.70;;;;;;;;;;3614326;39;20362;-61
2021/05/24 05:48:28;;;;;;;4.78;2.60;;;;;;;;;;3615665;39;20034;-61
2021/05/24 05:50:54;;;;;;;3.25;1.77;;;;;;;;;;3616058;39;20023;-61
2021/05/24 05:53:19;;;;;;;3.50;1.73;;;;;;;;;;3615356;39;20039;-61
2021/05/24 05:55:45;;;;;;;3.95;1.48;;;;;;;;;;3616164;39;20050;-61
2021/05/24 05:58:11;;;;;;;3.85;1.52;;;;;;;;;;3616308;39;20054;-62
2021/05/24 06:00:37;;;;;;;4.95;1.75;;;;;;;;;;3615028;39;20031;-62
2021/05/24 06:03:03;;;;;;;4.45;2.65;;;;;;;;;;3616062;39;20050;-62
2021/05/24 06:05:29;;;;;;;6.72;2.90;;;;;;;;;;3616081;39;20846;-62
2021/05/24 06:07:54;;;;;;;5.07;2.47;;;;;;;;;;3615457;39;20110;-62
2021/05/24 06:10:20;;;;;;;8.23;2.90;;;;;;;;;;3615365;39;20374;-61
2021/05/24 06:12:47;;;;;;;3.97;2.22;;;;;;;;;;3616212;39;20046;-61
2021/05/24 06:15:16;;;;;;;4.10;2.20;;;;;;;;;;3616556;39;20039;-61
2021/05/24 06:17:42;;;;;;;4.60;1.88;;;;;;;;;;3615016;39;20075;-61
2021/05/24 06:20:09;;;;;;;5.43;2.10;;;;;;;;;;3615468;39;20256;-62
2021/05/24 06:22:34;;;;;;;4.72;2.47;;;;;;;;;;3616342;39;20489;-61
2021/05/24 06:25:00;;;;;;;4.20;2.05;;;;;;;;;;3616164;39;20099;-61
2021/05/24 06:27:25;;;;;;;4.72;2.67;;;;;;;;;;3614420;39;20043;-61
2021/05/24 06:29:51;;;;;;;3.08;1.65;;;;;;;;;;3614001;39;20027;-61
2021/05/24 06:32:16;;;;;;;6.75;2.17;;;;;;;;;;3616065;39;20274;-61
2021/05/24 06:34:41;;;;;;;5.90;2.30;;;;;;;;;;3615409;39;20071;-61
2021/05/24 06:37:07;;;;;;;6.93;2.67;;;;;;;;;;3615327;39;20124;-61
2021/05/24 06:39:32;;;;;;;5.43;2.10;;;;;;;;;;3613447;39;20262;-61
2021/05/24 06:41:58;;;;;;;4.07;1.95;;;;;;;;;;3615017;39;20035;-61
2021/05/24 06:44:23;;;;;;;3.72;2.13;;;;;;;;;;3605507;39;20499;-61
2021/05/24 06:46:49;;;;;;;4.93;2.85;;;;;;;;;;3614565;39;20027;-61
2021/05/24 06:49:16;;;;;;;6.10;2.22;;;;;;;;;;3616014;39;20055;-61
2021/05/24 06:51:41;;;;;;;7.20;2.25;;;;;;;;;;3613845;39;20119;-61
2021/05/24 06:54:06;;;;;;;4.38;2.10;;;;;;;;;;3614760;39;20050;-61
2021/05/24 06:56:32;;;;;;;4.30;1.98;;;;;;;;;;3613129;39;20272;-61
2021/05/24 06:58:57;;;;;;;6.47;2.60;;;;;;;;;;3615196;39;20037;-61
2021/05/24 07:01:23;;;;;;;4.00;2.13;;;;;;;;;;3615856;39;20306;-61
2021/05/24 07:03:48;;;;;;;8.93;4.13;;;;;;;;;;3615293;39;20120;-61
2021/05/24 07:06:14;;;;;;;5.32;2.42;;;;;;;;;;3615817;39;20595;-61
2021/05/24 07:08:39;;;;;;;6.95;2.50;;;;;;;;;;3613987;39;20035;-61
2021/05/24 07:11:05;;;;;;;4.32;2.10;;;;;;;;;;3614090;39;20126;-61
2021/05/24 07:13:30;;;;;;;3.80;1.92;;;;;;;;;;3612857;39;20071;-61
2021/05/24 07:15:56;;;;;;;8.57;2.50;;;;;;;;;;3614727;39;20027;-61
2021/05/24 07:18:21;;;;;;;3.63;1.75;;;;;;;;;;3615390;39;20071;-61
2021/05/24 07:20:47;;;;;;;7.38;2.55;;;;;;;;;;3615522;39;20031;-61
2021/05/24 07:23:14;;;;;;;7.30;2.20;;;;;;;;;;3613797;39;20043;-61
2021/05/24 07:25:43;;;;;;;5.68;2.28;;;;;;;;;;3615177;39;20054;-61
2021/05/24 07:28:08;;;;;;;4.25;2.22;;;;;;;;;;3605734;39;20115;-61
2021/05/24 07:30:34;;;;;;;5.68;1.77;;;;;;;;;;3606060;39;20374;-61
2021/05/24 07:33:00;;;;;;;4.13;1.80;;;;;;;;;;3606240;39;20456;-61
2021/05/24 07:35:25;;;;;;;4.72;1.65;;;;;;;;;;3615220;39;20079;-61
2021/05/24 07:37:51;;;;;;;4.35;1.73;;;;;;;;;;3615229;39;20274;-61
2021/05/24 07:40:16;;;;;;;4.10;1.88;;;;;;;;;;3616870;39;20039;-61
2021/05/24 07:42:42;;;;;;;3.85;1.80;;;;;;;;;;3616811;39;20056;-61
2021/05/24 07:45:08;;;;;;;5.22;2.20;;;;;;;;;;3615916;39;20389;-60
2021/05/24 07:47:35;;;;;;;5.28;2.75;;;;;;;;;;3607194;39;20035;-61
2021/05/24 07:50:04;;;;;;;3.15;1.50;;;;;;;;;;3615256;39;20039;-60
2021/05/24 07:52:29;;;;;;;4.68;1.52;;;;;;;;;;3613456;39;20046;-60
2021/05/24 07:54:55;;;;;;;3.22;1.58;;;;;;;;;;3615693;39;20047;-59
2021/05/24 07:57:21;;;;;;;4.28;1.52;;;;;;;;;;3614919;39;20031;-61
2021/05/24 07:59:46;;;;;;;4.63;1.33;;;;;;;;;;3614519;39;20427;-60
2021/05/24 08:02:11;;;;;;;4.88;1.48;;;;;;;;;;3612988;39;20033;-61
2021/05/24 08:04:37;;;;;;;4.25;1.63;;;;;;;;;;3611905;39;20074;-61
2021/05/24 08:07:03;;;;;;;4.18;1.30;;;;;;;;;;3614332;39;20445;-61
2021/05/24 08:09:29;;;;;;;4.55;1.50;;;;;;;;;;3614170;39;20140;-60
2021/05/24 08:11:54;;;;;;;3.00;1.02;;;;;;;;;;3614420;39;20020;-60
2021/05/24 08:14:20;;;;;;;3.13;1.15;;;;;;;;;;3615822;39;20562;-60
2021/05/24 08:16:46;;;;;;;2.58;1.20;;;;;;;;;;3615358;39;20040;-60
2021/05/24 08:19:12;;;;;;;2.85;1.17;;;;;;;;;;3615709;39;20404;-60
2021/05/24 08:21:43;;;;;;;3.22;0.90;;;;;;;;;;3615895;39;20035;-61
2021/05/24 08:24:09;;;;;;;;;;;;;;;;;;3617063;39;20058;-61
2021/05/24 08:26:34;;;;;;;2.58;1.00;;;;;;;;;;3615423;39;19935;-61
2021/05/24 08:29:00;;;;;;;1.88;0.80;;;;;;;;;;3616051;39;20051;-61
2021/05/24 08:31:25;;;;;;;5.65;2.55;;;;;;;;;;3615761;39;20095;-61
2021/05/24 08:33:51;;;;;;;3.67;1.63;;;;;;;;;;3615302;39;20119;-61
2021/05/24 08:36:16;;;;;;;7.55;1.85;;;;;;;;;;3615504;39;20038;-62
2021/05/24 08:38:41;;;;;;;6.30;2.42;;;;;;;;;;3615390;39;20079;-60
2021/05/24 08:41:08;;;;;;;2.50;1.30;;;;;;;;;;3616731;39;20063;-60
2021/05/24 08:43:35;;;;;;;8.57;5.35;;;;;;;;;;3617245;39;20024;-60
2021/05/24 08:46:02;;;;;;;9.07;4.38;;;;;;;;;;3616687;39;20041;-60
2021/05/24 08:48:27;;;;;;;4.53;1.75;;;;;;;;;;3607150;39;20027;-60
2021/05/24 08:50:53;;;;;;;3.35;0.90;;;;;;;;;;3613683;39;20042;-60
2021/05/24 08:53:18;;;;;;;6.03;1.23;;;;;;;;;;3606289;39;20028;-60
2021/05/24 08:55:45;;;;;;;4.22;1.48;;;;;;;;;;3615282;39;20055;-60
2021/05/24 08:58:12;;;;;;;8.00;1.35;;;;;;;;;;3615508;39;20417;-60
2021/05/24 09:00:38;;;;;;;2.55;1.15;;;;;;;;;;3614985;39;20047;-60
2021/05/24 09:03:04;;;;;;;4.57;1.40;;;;;;;;;;3615496;39;20047;-60
2021/05/24 09:05:32;;;;;;;7.93;1.65;;;;;;;;;;3616591;39;20055;-60
2021/05/24 09:08:04;;;;;;;4.15;1.40;;;;;;;;;;3615266;39;20890;-60
2021/05/24 09:10:31;;;;;;;2.97;1.27;;;;;;;;;;3616810;39;20043;-60
2021/05/24 09:12:57;;;;;;;4.32;1.13;;;;;;;;;;3616691;39;20023;-60
2021/05/24 09:15:27;;;;;;;3.25;1.30;;;;;;;;;;3616826;39;20042;-60
2021/05/24 09:17:53;;;;;;;3.20;0.95;;;;;;;;;;3616036;39;20030;-60
2021/05/24 09:20:19;;;;;;;3.95;1.40;;;;;;;;;;3616672;39;20024;-60
2021/05/24 09:22:45;;;;;;;4.72;1.10;;;;;;;;;;3616716;39;20673;-60
2021/05/24 09:25:10;;;;;;;2.58;0.90;;;;;;;;;;3615715;39;20054;-60
2021/05/24 09:27:40;;;;;;;3.72;1.38;;;;;;;;;;3616619;39;20328;-60
2021/05/24 09:30:07;;;;;;;4.40;1.57;;;;;;;;;;3616802;39;20039;-60
2021/05/24 09:32:33;;;;;;;2.85;1.08;;;;;;;;;;3615073;39;20507;-60
2021/05/24 09:35:04;;;;;;;5.18;1.30;;;;;;;;;;3615832;39;20031;-60
2021/05/24 09:37:35;;;;;;;3.20;1.23;;;;;;;;;;3616686;39;20055;-60
2021/05/24 09:40:00;;;;;;;4.00;1.23;;;;;;;;;;3616540;39;20035;-60
2021/05/24 09:42:27;;;;;;;2.65;1.10;;;;;;;;;;3615552;39;20059;-60
2021/05/24 09:44:54;;;;;;;3.40;1.30;;;;;;;;;;3615052;39;20031;-60
2021/05/24 09:47:34;;;;;;;2.00;0.93;;;;;;;;;;3615914;39;20134;-61
2021/05/24 09:50:14;;;;;;;2.25;1.08;;;;;;;;;;3616821;39;20045;-60
2021/05/24 09:52:43;;;;;;;5.78;3.08;;;;;;;;;;3611862;39;20055;-60
2021/05/24 09:55:26;;;;;;;6.07;4.13;;;;;;;;;;3614896;39;20326;-60
2021/05/24 09:58:01;;;;;;;2.10;0.82;;;;;;;;;;3615307;39;20358;-61
2021/05/24 10:00:39;;;;;;;6.78;1.20;;;;;;;;;;3615915;39;20139;-60
2021/05/24 10:03:10;;;;;;;4.93;0.93;;;;;;;;;;3616254;39;20050;-59
2021/05/24 10:05:44;;;;;;;2.90;1.23;;;;;;;;;;3616129;39;20046;-60
2021/05/24 10:08:10;;;;;;;5.35;1.13;;;;;;;;;;3614744;39;20027;-60
2021/05/24 10:10:36;;;;;;;1.90;0.90;;;;;;;;;;3615050;39;20483;-59
2021/05/24 10:13:03;;;;;;;2.40;0.80;;;;;;;;;;3614732;39;20027;-60
2021/05/24 10:15:28;;;;;;;4.22;1.33;;;;;;;;;;3615467;39;20031;-59
2021/05/24 10:18:00;;;;;;;3.33;0.90;;;;;;;;;;3615386;39;20031;-59
2021/05/24 10:20:27;;;;;;;6.13;1.00;;;;;;;;;;3613307;39;20871;-60
2021/05/24 10:22:52;;;;;;;2.90;1.08;;;;;;;;;;3615894;39;20462;-60
2021/05/24 10:25:18;;;;;;;2.50;0.90;;;;;;;;;;3615697;39;20039;-60
2021/05/24 10:27:44;;;;;;;3.97;1.00;;;;;;;;;;3615709;39;20117;-59
2021/05/24 10:30:11;;;;;;;2.50;0.95;;;;;;;;;;3605319;39;20035;-61
2021/05/24 10:32:37;;;;;;;4.10;1.00;;;;;;;;;;3615530;39;20083;-61
2021/05/24 10:35:33;;;;;;;2.75;0.73;;;;;;;;;;3615810;39;20047;-60
2021/05/24 10:37:59;;;;;;;1.75;0.80;;;;;;;;;;3610787;39;20035;-60
2021/05/24 10:40:25;;;;;;;3.88;0.98;;;;;;;;;;3615946;39;20047;-60
2021/05/24 10:43:07;;;;;;;5.68;0.98;;;;;;;;;;3616388;39;20043;-60
2021/05/24 10:45:33;;;;;;;2.22;0.90;;;;;;;;;;3615519;39;20047;-61
2021/05/24 10:48:00;;;;;;;3.30;0.93;;;;;;;;;;3615603;39;20045;-60
2021/05/24 10:50:30;;;;;;;2.75;1.00;;;;;;;;;;3615492;39;20091;-60
2021/05/24 10:53:20;;;;;;;4.97;0.93;;;;;;;;;;3615118;39;20063;-60
2021/05/24 10:55:49;;;;;;;5.28;2.08;;;;;;;;;;3616233;39;20055;-60
2021/05/24 10:58:20;;;;;;;2.90;1.02;;;;;;;;;;3616139;39;20440;-60
2021/05/24 11:00:50;;;;;;;4.20;0.98;;;;;;;;;;3615981;39;20761;-60
2021/05/24 11:03:16;;;;;;;2.80;1.17;;;;;;;;;;3605477;39;20032;-61
2021/05/24 11:05:46;;;;;;;3.63;1.10;;;;;;;;;;3613639;39;20257;-60
2021/05/24 11:08:23;;;;;;;2.45;1.20;;;;;;;;;;3605708;39;20027;-60
2021/05/24 11:10:49;;;;;;;6.07;3.92;;;;;;;;;;3616121;39;20035;-61
2021/05/24 11:13:14;;;;;;;3.10;1.10;;;;;;;;;;3616521;39;20034;-59
2021/05/24 11:15:44;;;;;;;3.08;1.00;;;;;;;;;;3616314;39;20043;-60
2021/05/24 11:18:11;;;;;;;4.57;1.00;;;;;;;;;;3617387;39;20046;-60
2021/05/24 11:21:16;;;;;;;3.00;0.90;;;;;;;;;;3614548;39;20067;-59
2021/05/24 11:26:31;;;;;;;2.50;0.95;;;;;;;;;;3615315;39;20033;-60
2021/05/24 11:29:17;;;;;;;3.83;1.15;;;;;;;;;;3616927;39;20039;-60
2021/05/24 11:31:44;;;;;;;3.35;1.17;;;;;;;;;;3616658;39;20039;-60
2021/05/24 11:34:35;;;;;;;3.00;1.42;;;;;;;;;;3616979;39;20027;-61
2021/05/24 11:37:07;;;;;;;4.30;1.40;;;;;;;;;;3616982;39;20410;-59
2021/05/24 11:39:33;;;;;;;3.30;1.15;;;;;;;;;;3616574;39;20031;-61
2021/05/24 11:42:10;;;;;;;2.40;0.90;;;;;;;;;;3616550;39;20055;-61
2021/05/24 11:44:45;;;;;;;2.35;0.90;;;;;;;;;;3616888;39;20027;-61
2021/05/24 11:47:14;;;;;;;5.55;1.17;;;;;;;;;;3615410;39;20043;-62
2021/05/24 11:49:45;;;;;;;4.07;1.30;;;;;;;;;;3615915;39;20023;-60
2021/05/24 11:52:13;;;;;;;2.15;0.90;;;;;;;;;;3617418;39;20368;-60
2021/05/24 11:54:40;;;;;;;3.15;0.70;;;;;;;;;;3607476;39;20031;-60
2021/05/24 11:57:08;;;;;;;2.75;1.05;;;;;;;;;;3616378;39;20035;-60
2021/05/24 11:59:34;;;;;;;3.35;1.25;;;;;;;;;;3617003;39;20116;-60
2021/05/24 12:02:02;;;;;;;4.05;1.10;;;;;;;;;;3617110;39;20039;-61
2021/05/24 12:04:36;;;;;;;4.13;1.02;;;;;;;;;;3616784;39;20037;-61
2021/05/24 12:07:12;;;;;;;3.22;0.95;;;;;;;;;;3615724;39;20378;-61
2021/05/24 12:09:58;;;;;;;1.92;0.80;;;;;;;;;;3616486;39;20051;-60
2021/05/24 12:12:35;;;;;;;3.85;1.17;;;;;;;;;;3616415;39;20034;-60
2021/05/24 12:15:07;;;;;;;1.90;0.65;;;;;;;;;;3615374;39;20364;-60
2021/05/24 12:17:35;;;;;;;1.88;0.73;;;;;;;;;;3615222;39;20062;-61
2021/05/24 12:20:06;;;;;;;2.95;1.08;;;;;;;;;;3616706;39;20056;-61
2021/05/24 12:22:38;;;;;;;2.97;1.50;;;;;;;;;;3616086;39;20440;-61
2021/05/24 12:25:04;;;;;;;5.10;1.20;;;;;;;;;;3616614;39;20042;-60
2021/05/24 12:27:30;;;;;;;3.13;1.35;;;;;;;;;;3606574;39;20052;-61
2021/05/24 12:30:09;;;;;;;4.22;1.42;;;;;;;;;;3617034;39;20031;-60
2021/05/24 12:32:35;;;;;;;4.03;1.38;;;;;;;;;;3616791;39;20390;-61
2021/05/24 12:35:06;;;;;;;4.93;1.23;;;;;;;;;;3616486;39;20039;-60
2021/05/24 12:37:33;;;;;;;2.58;1.15;;;;;;;;;;3616312;39;20114;-61
2021/05/24 12:39:59;;;;;;;2.33;0.90;;;;;;;;;;3616415;39;20042;-60
2021/05/24 12:42:24;;;;;;;3.55;1.02;;;;;;;;;;3616263;39;20035;-60
2021/05/24 12:44:50;;;;;;;4.25;1.20;;;;;;;;;;3616318;39;20442;-60
2021/05/24 12:47:20;;;;;;;2.15;0.82;;;;;;;;;;3616413;39;20267;-60
2021/05/24 12:49:47;;;;;;;;;;;;;;;;;;3617984;39;20020;-60
2021/05/24 12:52:14;;;;;;;2.83;0.90;;;;;;;;;;3615290;39;19949;-59
2021/05/24 12:54:45;;;;;;;3.85;1.20;;;;;;;;;;3614114;39;20043;-59
2021/05/24 12:57:13;;;;;;;4.28;1.52;;;;;;;;;;3614968;39;20087;-60
2021/05/24 12:59:54;;;;;;;2.60;0.90;;;;;;;;;;3605925;39;20039;-60
2021/05/24 13:02:24;;;;;;;1.90;0.98;;;;;;;;;;3615229;39;20336;-59
2021/05/24 13:04:50;;;;;;;4.75;0.90;;;;;;;;;;3607127;39;20023;-59
2021/05/24 13:07:18;;;;;;;4.47;1.35;;;;;;;;;;3615939;39;20035;-59
2021/05/24 13:09:46;;;;;;;2.67;0.90;;;;;;;;;;3614952;39;20029;-60
2021/05/24 13:12:25;;;;;;;2.88;1.05;;;;;;;;;;3616301;39;20035;-59
2021/05/24 13:14:55;;;;;;;3.10;0.98;;;;;;;;;;3615677;39;20095;-61
2021/05/24 13:22:59;;;;;;;3.00;1.17;;;;;;;;;;3614105;39;20047;-60
2021/05/24 13:25:47;;;;;;;1.98;0.85;;;;;;;;;;3614211;39;20035;-59
2021/05/24 13:30:59;;;;;;;2.20;0.90;;;;;;;;;;3617138;39;20576;-59
2021/05/24 13:33:27;;;;;;;3.33;1.00;;;;;;;;;;3614370;39;20049;-59
2021/05/24 13:35:52;;;;;;;1.80;0.70;;;;;;;;;;3615659;39;20424;-60
2021/05/24 13:38:18;;;;;;;3.15;0.98;;;;;;;;;;3616463;39;20031;-59
2021/05/24 13:40:43;;;;;;;5.88;1.10;;;;;;;;;;3606415;39;20035;-59
2021/05/24 13:43:09;;;;;;;1.83;0.90;;;;;;;;;;3616976;39;20035;-59
2021/05/24 13:45:34;;;;;;;2.42;0.80;;;;;;;;;;3615972;39;20073;-59
2021/05/24 13:47:59;;;;;;;8.40;1.27;;;;;;;;;;3616898;39;20447;-59
2021/05/24 13:50:25;;;;;;;2.85;0.73;;;;;;;;;;3615010;39;20043;-58
2021/05/24 13:52:50;;;;;;;1.70;0.80;;;;;;;;;;3616877;39;20517;-58
2021/05/24 13:55:16;;;;;;;2.40;1.05;;;;;;;;;;3617039;39;20135;-59
2021/05/24 13:57:41;;;;;;;11.57;1.30;;;;;;;;;;3615769;39;20039;-58
2021/05/24 14:00:09;;;;;;;3.40;1.08;;;;;;;;;;3615336;39;20038;-58
2021/05/24 14:02:35;;;;;;;2.55;0.98;;;;;;;;;;3615839;39;20542;-59
2021/05/24 14:05:00;;;;;;;2.05;0.90;;;;;;;;;;3614965;39;20043;-58
2021/05/24 14:07:25;;;;;;;3.83;1.30;;;;;;;;;;3614818;39;20131;-60
2021/05/24 14:09:51;;;;;;;6.10;1.60;;;;;;;;;;3605690;39;20128;-60
2021/05/24 14:12:18;;;;;;;2.40;1.02;;;;;;;;;;3615783;39;20079;-60
2021/05/24 14:14:44;;;;;;;3.38;0.90;;;;;;;;;;3615597;39;20135;-64
2021/05/24 14:17:10;;;;;;;2.22;1.00;;;;;;;;;;3614851;39;20027;-59
2021/05/24 14:19:36;;;;;;;5.78;1.58;;;;;;;;;;3615841;39;20055;-64
2021/05/24 14:22:01;;;;;;;3.65;1.35;;;;;;;;;;3615909;39;20119;-60
2021/05/24 14:24:27;;;;;;;2.80;1.27;;;;;;;;;;3614543;39;20035;-60
2021/05/24 14:26:52;;;;;;;3.50;1.30;;;;;;;;;;3613310;39;20036;-60
2021/05/24 14:29:19;;;;;;;4.10;1.48;;;;;;;;;;3614639;39;20049;-64
2021/05/24 14:31:45;;;;;;;2.88;1.30;;;;;;;;;;3615847;39;20124;-62
2021/05/24 14:34:10;;;;;;;5.82;1.38;;;;;;;;;;3615727;39;20031;-60
2021/05/24 14:36:36;;;;;;;5.50;1.35;;;;;;;;;;3614687;39;20027;-60
2021/05/24 14:39:04;;;;;;;3.90;1.52;;;;;;;;;;3616297;39;20071;-61
2021/05/24 14:41:29;;;;;;;3.92;1.45;;;;;;;;;;3616094;39;20039;-60
2021/05/24 14:43:55;;;;;;;2.75;1.30;;;;;;;;;;3615109;39;20058;-60
2021/05/24 14:46:20;;;;;;;3.60;1.55;;;;;;;;;;3616312;39;20042;-60
2021/05/24 14:48:45;;;;;;;2.55;0.95;;;;;;;;;;3616359;39;20079;-61
2021/05/24 14:51:11;;;;;;;3.08;1.13;;;;;;;;;;3615629;39;20114;-61
2021/05/24 14:53:37;;;;;;;4.05;1.48;;;;;;;;;;3611317;39;20039;-61
2021/05/24 14:56:02;;;;;;;2.95;1.10;;;;;;;;;;3605342;39;20279;-61